Time;durP1;ratioP1;P1;durP2;ratioP2;P2;SDS_P1;SDS_P2;PMS_P1;PMS_P2;Temp;Humidity;BMP_temperature;BMP_pressure;BME280_temperature;BME280_humidity;BME280_pressure;Samples;Min_cycle;Max_cycle;Signal;HPM_P1;HPM_P2
2023/08/03 00:01:20;;;;;;;14.53;7.50;;;;;;;20.52;70.01;99768.89;123748;1102;104200;-81
2023/08/03 00:03:51;;;;;;;14.83;7.70;;;;;;;20.51;70.00;99764.48;123323;1102;104278;-81
2023/08/03 00:06:22;;;;;;;18.77;8.10;;;;;;;20.54;71.07;99769.77;123257;1102;104226;-79
2023/08/03 00:08:54;;;;;;;18.00;8.77;;;;;;;20.59;70.26;99767.89;123307;1102;104462;-80
2023/08/03 00:11:25;;;;;;;13.37;8.00;;;;;;;20.60;71.25;99767.86;123741;1101;104345;-80
2023/08/03 00:13:56;;;;;;;15.97;7.93;;;;;;;20.55;71.17;99772.37;123823;1102;104136;-80
2023/08/03 00:16:28;;;;;;;17.13;8.37;;;;;;;20.48;71.76;99771.60;123576;1102;104329;-80
2023/08/03 00:18:59;;;;;;;14.73;8.00;;;;;;;20.39;70.89;99773.55;123733;1102;104278;-81
2023/08/03 00:21:30;;;;;;;14.43;7.93;;;;;;;20.28;71.00;99771.05;123312;1102;104275;-80
2023/08/03 00:24:02;;;;;;;18.20;7.80;;;;;;;20.18;71.78;99777.41;123499;1102;104429;-80
2023/08/03 00:26:33;;;;;;;16.23;7.90;;;;;;;20.10;71.71;99775.77;123769;1102;104278;-81
2023/08/03 00:29:04;;;;;;;15.87;8.00;;;;;;;20.03;72.24;99779.41;123515;1102;104261;-80
2023/08/03 00:31:35;;;;;;;15.20;8.50;;;;;;;19.99;72.96;99783.04;123713;1102;104668;-80
2023/08/03 00:34:07;;;;;;;17.77;8.20;;;;;;;19.99;72.59;99776.81;123664;1102;104254;-79
2023/08/03 00:36:38;;;;;;;15.23;7.90;;;;;;;19.98;72.64;99783.94;123659;1102;104250;-80
2023/08/03 00:39:10;;;;;;;16.53;8.00;;;;;;;19.92;73.10;99773.36;123733;1102;104252;-80
2023/08/03 00:41:41;;;;;;;16.40;8.10;;;;;;;19.87;73.75;99778.75;123590;1102;104281;-81
2023/08/03 00:44:13;;;;;;;15.57;8.00;;;;;;;19.82;73.81;99777.05;123799;1102;104287;-81
2023/08/03 00:46:46;;;;;;;16.23;8.60;;;;;;;19.75;73.33;99777.09;123370;1102;104303;-80
2023/08/03 00:49:17;;;;;;;17.75;8.15;;;;;;;19.71;74.37;99767.41;123453;1102;104402;-79
2023/08/03 00:51:49;;;;;;;16.97;7.87;;;;;;;19.70;73.81;99765.64;123265;1102;104204;-80
2023/08/03 00:54:20;;;;;;;14.98;8.10;;;;;;;19.68;74.57;99774.53;123365;1102;104290;-81
2023/08/03 00:56:51;;;;;;;20.67;8.87;;;;;;;19.64;74.39;99773.70;123506;1102;104256;-81
2023/08/03 00:59:23;;;;;;;15.07;7.50;;;;;;;19.63;75.09;99768.41;124010;1102;102025;-82
2023/08/03 01:01:54;;;;;;;16.47;8.43;;;;;;;19.59;75.37;99778.22;123906;1102;104306;-81
2023/08/03 01:04:25;;;;;;;14.25;7.95;;;;;;;19.57;75.04;99782.66;123298;1103;104734;-82
2023/08/03 01:07:00;;;;;;;15.60;8.30;;;;;;;19.56;75.50;99772.93;123473;1102;104303;-82
2023/08/03 01:09:31;;;;;;;16.47;8.33;;;;;;;19.59;75.96;99775.55;123758;1102;104261;-81
2023/08/03 01:12:05;;;;;;;15.93;8.28;;;;;;;19.66;75.21;99779.00;123733;1101;104264;-81
2023/08/03 01:14:37;;;;;;;16.30;8.40;;;;;;;19.71;75.36;99764.75;123889;1102;104396;-81
2023/08/03 01:17:08;;;;;;;16.13;7.97;;;;;;;19.75;75.20;99761.12;123334;1102;104402;-81
2023/08/03 01:19:40;;;;;;;15.25;7.90;;;;;;;19.77;75.65;99760.27;123659;1102;104287;-81
2023/08/03 01:22:13;;;;;;;16.17;8.03;;;;;;;19.70;75.39;99760.31;123402;1102;104274;-81
2023/08/03 01:24:44;;;;;;;;;;;;;;;19.64;75.27;99757.73;123373;1102;104358;-80
2023/08/03 01:27:15;;;;;;;16.23;7.70;;;;;;;19.69;76.00;99761.20;123524;1102;104284;-81
2023/08/03 01:29:46;;;;;;;16.30;8.20;;;;;;;19.75;76.21;99757.59;123377;1102;104376;-80
2023/08/03 01:32:19;;;;;;;15.13;8.15;;;;;;;19.75;75.51;99766.45;123698;1102;104281;-80
2023/08/03 01:34:51;;;;;;;16.40;8.53;;;;;;;19.73;76.31;99765.60;123597;1102;104545;-80
2023/08/03 01:37:22;;;;;;;16.47;8.67;;;;;;;19.77;75.75;99763.80;123715;1102;104386;-81
2023/08/03 01:39:53;;;;;;;18.90;8.60;;;;;;;19.81;76.68;99762.00;123710;1102;104392;-81
2023/08/03 01:42:26;;;;;;;15.70;8.23;;;;;;;19.85;76.18;99766.36;123269;1106;104408;-81
2023/08/03 01:44:57;;;;;;;16.97;8.27;;;;;;;19.88;77.15;99766.31;123242;1105;104310;-81
2023/08/03 01:47:29;;;;;;;17.30;8.20;;;;;;;19.91;76.55;99766.27;123350;1102;104258;-81
2023/08/03 01:50:00;;;;;;;17.00;8.20;;;;;;;19.91;76.29;99768.94;123296;1102;104661;-81
2023/08/03 01:52:31;;;;;;;17.07;8.07;;;;;;;19.83;76.65;99771.70;123334;1102;104203;-80
2023/08/03 01:55:03;;;;;;;16.50;8.00;;;;;;;19.78;77.07;99767.36;123270;1102;104248;-81
2023/08/03 01:57:34;;;;;;;17.07;8.57;;;;;;;19.72;77.02;99768.28;123407;1102;104303;-80
2023/08/03 02:00:08;;;;;;;13.40;8.15;;;;;;;19.65;77.53;99775.48;123343;1101;104341;-80
2023/08/03 02:02:44;;;;;;;16.67;8.43;;;;;;;19.55;77.56;99777.35;123804;1105;104309;-80
2023/08/03 02:05:16;;;;;;;16.73;8.63;;;;;;;19.47;77.93;99784.56;123616;1102;104251;-80
2023/08/03 02:07:53;;;;;;;15.65;8.35;;;;;;;19.42;78.26;99789.06;123631;1105;104398;-81
2023/08/03 02:10:25;;;;;;;14.57;8.37;;;;;;;19.38;78.15;99792.64;123812;1102;104502;-81
2023/08/03 02:12:56;;;;;;;16.80;8.17;;;;;;;19.34;78.40;99786.49;123440;1103;104309;-81
2023/08/03 02:15:28;;;;;;;16.23;8.37;;;;;;;19.31;78.10;99791.84;123499;1105;104217;-80
2023/08/03 02:17:59;;;;;;;16.60;8.57;;;;;;;19.24;78.06;99798.12;123365;1102;104233;-81
2023/08/03 02:20:30;;;;;;;14.97;8.43;;;;;;;19.23;78.70;99796.38;123195;1105;104645;-80
2023/08/03 02:23:01;;;;;;;14.50;8.53;;;;;;;19.20;79.12;99810.58;123230;1102;104255;-80
2023/08/03 02:25:33;;;;;;;16.97;8.67;;;;;;;19.14;78.61;99807.11;123253;1105;104364;-78
2023/08/03 02:28:04;;;;;;;17.43;8.43;;;;;;;19.01;79.68;99814.31;123331;1105;104310;-79
2023/08/03 02:30:37;;;;;;;18.33;8.87;;;;;;;18.88;79.74;99816.21;123359;1102;104324;-80
2023/08/03 02:33:09;;;;;;;17.07;8.60;;;;;;;18.80;79.67;99818.91;123288;1102;104712;-80
2023/08/03 02:35:41;;;;;;;15.67;8.33;;;;;;;18.74;79.54;99816.30;123216;1102;104277;-80
2023/08/03 02:38:12;;;;;;;16.13;8.67;;;;;;;18.68;80.67;99814.59;123496;1105;104329;-81
2023/08/03 02:40:44;;;;;;;15.43;8.77;;;;;;;18.63;80.81;99816.39;123531;1105;104226;-79
2023/08/03 02:43:15;;;;;;;15.97;8.97;;;;;;;18.58;81.26;99818.20;123467;1103;104297;-81
2023/08/03 02:45:47;;;;;;;18.60;9.13;;;;;;;18.55;81.67;99818.23;123293;1106;104272;-81
2023/08/03 02:48:18;;;;;;;17.17;9.30;;;;;;;18.53;81.99;99821.78;123506;1102;104278;-81
2023/08/03 02:50:50;;;;;;;18.90;10.00;;;;;;;18.50;82.01;99828.02;123454;1102;104312;-81
2023/08/03 02:53:22;;;;;;;17.43;9.73;;;;;;;18.47;81.88;99834.23;123751;1102;104350;-81
2023/08/03 02:55:53;;;;;;;18.60;10.20;;;;;;;18.46;81.82;99844.86;123815;1102;104242;-81
2023/08/03 02:58:26;;;;;;;18.87;9.83;;;;;;;18.44;81.62;99833.37;123299;1102;107004;-81
2023/08/03 03:00:57;;;;;;;;;;;;;;;18.42;81.58;99841.36;123540;1102;104306;-80
2023/08/03 03:03:28;;;;;;;20.23;9.70;;;;;;;18.41;81.59;99839.58;123433;1102;104368;-81
2023/08/03 03:05:59;;;;;;;20.13;10.47;;;;;;;18.41;82.38;99833.40;123424;1105;104249;-81
2023/08/03 03:08:32;;;;;;;22.57;10.33;;;;;;;18.44;82.27;99836.03;123351;1102;118825;-80
2023/08/03 03:11:04;;;;;;;18.90;10.00;;;;;;;18.46;82.36;99839.55;123443;1102;104347;-80
2023/08/03 03:13:35;;;;;;;18.13;10.00;;;;;;;18.47;82.75;99842.20;123840;1102;104366;-80
2023/08/03 03:16:06;;;;;;;23.47;10.53;;;;;;;18.49;83.00;99844.84;123383;1105;104363;-79
2023/08/03 03:18:38;;;;;;;23.53;11.07;;;;;;;18.54;82.81;99842.16;123449;1101;104255;-80
2023/08/03 03:21:09;;;;;;;18.83;9.97;;;;;;;18.55;83.05;99855.42;123358;1105;104298;-81
2023/08/03 03:23:40;;;;;;;22.20;10.87;;;;;;;18.56;82.75;99843.02;123352;1102;104274;-81
2023/08/03 03:26:11;;;;;;;21.17;10.43;;;;;;;18.56;83.02;99849.23;123521;1102;104351;-82
2023/08/03 03:28:43;;;;;;;20.53;10.47;;;;;;;18.58;83.16;99860.72;123509;1105;104248;-82
2023/08/03 03:31:15;;;;;;;18.77;10.53;;;;;;;18.59;83.55;99849.21;123584;1103;104172;-81
2023/08/03 03:33:46;;;;;;;21.30;10.33;;;;;;;18.61;83.95;99857.17;123482;1102;104318;-81
2023/08/03 03:36:19;;;;;;;19.70;10.07;;;;;;;18.63;83.58;99858.03;123399;1101;104706;-81
2023/08/03 03:38:50;;;;;;;18.55;10.15;;;;;;;18.65;83.81;99861.55;123527;1102;104322;-80
2023/08/03 03:41:22;;;;;;;18.77;9.70;;;;;;;18.64;84.01;99868.65;123896;1101;104318;-81
2023/08/03 03:43:53;;;;;;;19.33;10.20;;;;;;;18.67;83.96;99859.78;123388;1102;104313;-80
2023/08/03 03:46:25;;;;;;;19.70;10.37;;;;;;;18.68;84.26;99865.08;123505;1102;104163;-80
2023/08/03 03:48:56;;;;;;;23.40;10.10;;;;;;;18.74;83.63;99865.92;123324;1105;104363;-80
2023/08/03 03:51:28;;;;;;;19.03;10.60;;;;;;;18.77;83.98;99865.90;123484;1102;104370;-81
2023/08/03 03:53:59;;;;;;;20.53;9.60;;;;;;;18.81;84.07;99863.20;123339;1102;104252;-82
2023/08/03 03:56:30;;;;;;;21.80;10.57;;;;;;;18.86;83.51;99871.17;123272;1102;104613;-80
2023/08/03 03:59:02;;;;;;;19.50;9.93;;;;;;;18.91;83.91;99873.80;123360;1103;104316;-82
2023/08/03 04:01:33;;;;;;;17.47;9.57;;;;;;;18.95;83.62;99879.08;123451;1105;104344;-82
2023/08/03 04:04:05;;;;;;;18.53;9.90;;;;;;;18.97;84.98;99873.74;123443;1102;104338;-82
2023/08/03 04:06:36;;;;;;;18.37;9.43;;;;;;;18.97;84.49;99871.95;123625;1102;104300;-83
2023/08/03 04:09:07;;;;;;;17.47;9.63;;;;;;;18.99;84.88;99875.47;123513;1102;104411;-87
2023/08/03 04:11:39;;;;;;;18.37;9.97;;;;;;;19.02;84.55;99875.45;123869;1102;104236;-85
2023/08/03 04:14:10;;;;;;;17.27;9.20;;;;;;;19.07;85.25;99882.52;124221;1105;104351;-89
2023/08/03 04:16:41;;;;;;;19.90;9.30;;;;;;;19.12;84.69;99886.00;123725;1102;104293;-86
2023/08/03 04:19:12;;;;;;;16.77;8.77;;;;;;;19.18;84.94;99884.19;123740;1102;104278;-83
2023/08/03 04:21:44;;;;;;;18.50;9.45;;;;;;;19.24;85.28;99885.89;123799;1102;104444;-84
2023/08/03 04:24:15;;;;;;;15.50;9.00;;;;;;;19.31;85.58;99884.07;123707;1102;104339;-83
2023/08/03 04:26:47;;;;;;;18.03;9.03;;;;;;;19.36;85.37;99882.23;123624;1102;104460;-83
2023/08/03 04:29:24;;;;;;;16.47;8.77;;;;;;;19.42;85.27;99878.64;123591;1102;104265;-84
2023/08/03 04:31:57;;;;;;;16.43;9.20;;;;;;;19.48;86.08;99881.24;123824;1102;104329;-84
2023/08/03 04:34:30;;;;;;;17.80;8.60;;;;;;;19.52;85.14;99886.48;123806;1103;105290;-85
2023/08/03 04:37:07;;;;;;;15.77;8.57;;;;;;;19.58;86.01;99880.22;123468;1105;104342;-84
2023/08/03 04:39:39;;;;;;;15.93;8.70;;;;;;;19.66;85.85;99883.67;123594;1102;104354;-84
2023/08/03 04:42:11;;;;;;;15.75;8.30;;;;;;;19.72;84.93;99880.94;123823;1102;104272;-83
2023/08/03 04:44:43;;;;;;;17.37;9.07;;;;;;;19.78;85.09;99877.37;123859;1102;105791;-83
2023/08/03 04:47:14;;;;;;;17.80;8.40;;;;;;;19.85;84.94;99875.50;123922;1102;104732;-82
2023/08/03 04:49:47;;;;;;;16.80;8.53;;;;;;;19.91;85.87;99886.08;123874;1102;104251;-82
2023/08/03 04:52:18;;;;;;;16.20;8.45;;;;;;;19.98;85.07;99889.57;123912;1103;104361;-82
2023/08/03 04:54:50;;;;;;;14.03;7.90;;;;;;;20.03;85.63;99890.38;124241;1102;104283;-80
2023/08/03 04:57:21;;;;;;;15.77;8.77;;;;;;;20.08;84.47;99892.06;123758;1105;104668;-81
2023/08/03 04:59:52;;;;;;;15.00;8.20;;;;;;;20.13;84.35;99889.34;123794;1102;104338;-81
2023/08/03 05:02:24;;;;;;;14.53;8.10;;;;;;;20.19;84.95;99889.27;124025;1102;102109;-80
2023/08/03 05:04:56;;;;;;;14.87;8.30;;;;;;;20.24;84.44;99887.44;123923;1102;104255;-82
2023/08/03 05:07:28;;;;;;;17.73;9.00;;;;;;;20.33;85.11;99891.73;123884;1105;104335;-82
2023/08/03 05:09:59;;;;;;;15.70;8.63;;;;;;;20.40;85.30;99904.08;124231;1102;104317;-80
2023/08/03 05:12:38;;;;;;;13.90;8.20;;;;;;;20.48;85.05;99907.51;124814;1101;104262;-81
2023/08/03 05:15:11;;;;;;;13.83;7.70;;;;;;;20.58;84.45;99910.05;125624;1102;102967;-81
2023/08/03 05:17:43;;;;;;;15.23;8.83;;;;;;;20.65;84.12;99919.75;125532;1102;104184;-82
2023/08/03 05:20:19;;;;;;;15.97;7.77;;;;;;;20.72;85.20;99915.20;126039;1102;101800;-82
2023/08/03 05:22:49;;;;;;;;;;;;;;;20.77;84.53;99914.23;125242;1102;104197;-80
2023/08/03 05:25:20;;;;;;;16.70;8.40;;;;;;;20.85;84.23;99915.88;124517;1102;104220;-79
2023/08/03 05:27:52;;;;;;;16.30;8.40;;;;;;;20.91;84.31;99915.79;124547;1102;104255;-82
2023/08/03 05:30:23;;;;;;;15.30;8.27;;;;;;;20.97;83.49;99918.36;124320;1102;104020;-82
2023/08/03 05:32:57;;;;;;;15.73;8.67;;;;;;;21.06;83.43;99914.67;124752;1102;104261;-81
2023/08/03 05:35:28;;;;;;;15.87;8.20;;;;;;;21.12;83.67;99915.44;124445;1102;102493;-81
2023/08/03 05:38:00;;;;;;;17.80;9.17;;;;;;;21.20;84.42;99917.97;124679;1102;104270;-83
2023/08/03 05:40:32;;;;;;;14.57;8.27;;;;;;;21.28;83.68;99920.52;116175;1102;10001924;-80
2023/08/03 05:43:09;;;;;;;16.00;7.90;;;;;;;21.36;83.30;99914.14;124508;1102;104191;-80
2023/08/03 05:45:43;;;;;;;17.87;8.57;;;;;;;21.47;83.74;99918.38;124614;1102;102780;-82
2023/08/03 05:48:18;;;;;;;14.90;7.97;;;;;;;21.59;83.86;99926.20;124669;1102;102725;-79
2023/08/03 05:51:08;;;;;;;18.70;8.50;;;;;;;21.68;83.97;99930.50;124625;1102;104259;-79
2023/08/03 05:53:45;;;;;;;15.33;8.50;;;;;;;21.78;83.79;99920.52;124557;1102;104785;-80
2023/08/03 05:56:22;;;;;;;13.17;7.70;;;;;;;21.85;83.77;99923.03;125117;1102;102815;-79
2023/08/03 05:58:55;;;;;;;15.70;7.93;;;;;;;21.96;83.42;99925.49;124948;1102;102914;-80
2023/08/03 06:01:29;;;;;;;16.57;7.80;;;;;;;22.07;83.33;99926.14;124885;1102;104182;-80
2023/08/03 06:04:01;;;;;;;16.67;7.90;;;;;;;22.17;83.06;99929.49;124853;1102;102882;-80
2023/08/03 06:06:33;;;;;;;13.90;7.83;;;;;;;22.25;82.39;99922.22;124974;1102;104301;-80
2023/08/03 06:09:17;;;;;;;18.33;8.03;;;;;;;22.36;82.34;99921.11;125553;1102;104230;-82
2023/08/03 06:11:52;;;;;;;14.80;7.57;;;;;;;22.43;82.60;99923.62;124855;1105;101991;-81
2023/08/03 06:14:44;;;;;;;14.80;7.83;;;;;;;22.52;82.34;99925.22;124661;1105;104313;-80
2023/08/03 06:17:23;;;;;;;19.37;8.50;;;;;;;22.62;82.17;99920.53;125252;1102;104246;-80
2023/08/03 06:20:26;;;;;;;13.15;7.42;;;;;;;22.73;81.56;99928.30;119561;1102;10001383;-78
2023/08/03 06:23:00;;;;;;;13.77;8.03;;;;;;;22.83;81.73;99928.96;125518;1102;102674;-79
2023/08/03 06:25:37;;;;;;;17.47;7.93;;;;;;;22.92;80.89;99928.73;124856;1102;104397;-81
2023/08/03 06:31:46;;;;;;;14.53;7.17;;;;;;;23.11;80.75;99923.88;125394;1102;104182;-82
2023/08/03 06:34:27;;;;;;;15.30;7.70;;;;;;;23.24;80.43;99933.33;125078;1102;104168;-82
2023/08/03 06:37:04;;;;;;;15.10;7.10;;;;;;;23.36;79.90;99926.80;125340;1102;102823;-83
2023/08/03 06:39:42;;;;;;;13.37;7.67;;;;;;;23.45;79.36;99934.58;125661;1102;103177;-80
2023/08/03 06:42:18;;;;;;;15.27;7.40;;;;;;;23.58;78.89;99939.61;125285;1102;102835;-78
2023/08/03 06:45:18;;;;;;;12.57;6.80;;;;;;;23.64;78.86;99934.96;124789;1102;103282;-81
2023/08/03 06:48:11;;;;;;;13.30;6.90;;;;;;;23.78;78.43;99939.05;125214;1105;102750;-80
2023/08/03 06:50:45;;;;;;;16.10;6.77;;;;;;;23.94;78.13;99936.87;125519;1102;104185;-78
2023/08/03 06:53:48;;;;;;;13.13;6.80;;;;;;;24.09;78.16;99927.49;125298;1105;103436;-81
2023/08/03 06:56:25;;;;;;;12.20;5.97;;;;;;;24.28;77.56;99926.04;125591;1102;104223;-84
2023/08/03 07:00:18;;;;;;;;;;;;;;;;;;;;;
2023/08/03 07:03:31;;;;;;;13.15;6.45;;;;;;;24.86;77.28;99917.13;125409;1102;101863;-81
2023/08/03 07:09:08;;;;;;;11.73;6.00;;;;;;;25.14;76.07;99911.72;125854;1102;102556;-79
2023/08/03 07:11:46;;;;;;;11.43;5.90;;;;;;;25.26;76.01;99915.80;125326;1102;104175;-84
2023/08/03 07:14:38;;;;;;;12.47;5.90;;;;;;;25.45;75.38;99919.63;125473;1102;102178;-82
2023/08/03 07:17:17;;;;;;;13.03;6.60;;;;;;;25.62;74.59;99923.53;125483;1102;102980;-82
2023/08/03 07:20:02;;;;;;;14.33;6.77;;;;;;;25.77;74.98;99925.67;125396;1102;104194;-85
2023/08/03 07:22:41;;;;;;;11.30;5.87;;;;;;;25.98;74.28;99921.33;125549;1102;102268;-82
2023/08/03 07:25:28;;;;;;;12.83;5.73;;;;;;;26.23;73.41;99930.30;125360;1102;102587;-80
2023/08/03 07:28:09;;;;;;;12.00;5.57;;;;;;;26.41;71.79;99926.88;125159;1105;102659;-80
2023/08/03 07:30:44;;;;;;;13.90;5.60;;;;;;;26.59;71.31;99924.42;125566;1102;102370;-83
2023/08/03 07:33:20;;;;;;;10.30;5.60;;;;;;;26.71;71.23;99934.73;125181;1102;104255;-82
2023/08/03 07:35:59;;;;;;;11.27;5.60;;;;;;;26.93;70.20;99925.75;125126;1102;104243;-82
2023/08/03 07:38:42;;;;;;;14.07;6.33;;;;;;;27.02;70.09;99926.27;125329;1101;104251;-79
2023/08/03 07:41:45;;;;;;;15.33;5.97;;;;;;;27.23;68.39;99921.78;125126;1102;104143;-82
2023/08/03 07:44:34;;;;;;;;;;;;;;;;;;;;;
2023/08/03 07:47:36;;;;;;;8.93;5.37;;;;;;;27.57;67.32;99923.06;125442;1102;103285;-84
2023/08/03 07:50:39;;;;;;;;;;;;;;;;;;;;;
2023/08/03 07:53:42;;;;;;;9.30;4.90;;;;;;;27.77;65.92;99919.48;125272;1102;104296;-85
2023/08/03 07:56:27;;;;;;;7.00;4.50;;;;;;;27.96;64.99;99908.77;125226;1102;102587;-85
2023/08/03 07:59:05;;;;;;;12.40;4.80;;;;;;;28.13;63.70;99907.13;125499;1102;103406;-81
2023/08/03 08:01:48;;;;;;;9.25;4.70;;;;;;;28.25;62.97;99909.25;125155;1105;104345;-83
2023/08/03 08:04:50;;;;;;;11.53;4.60;;;;;;;28.33;62.10;99903.49;125154;1102;104188;-86
2023/08/03 08:07:31;;;;;;;11.10;4.77;;;;;;;28.41;61.93;99909.39;125125;1102;103981;-83
2023/08/03 08:10:45;;;;;;;;;;;;;;;;;;;;;
2023/08/03 08:13:39;;;;;;;6.45;4.30;;;;;;;28.54;60.07;99904.27;125700;1102;102395;-81
2023/08/03 08:16:26;;;;;;;7.07;4.50;;;;;;;28.74;60.04;99905.17;125736;1102;110996;-81
2023/08/03 08:22:23;;;;;;;7.43;4.87;;;;;;;29.15;58.70;99899.50;125352;1102;104255;-80
2023/08/03 08:25:07;;;;;;;12.03;4.50;;;;;;;29.27;57.33;99898.05;125005;1102;103158;-81
2023/08/03 08:28:05;;;;;;;6.40;4.20;;;;;;;29.38;57.50;99901.92;125426;1101;104253;-81
2023/08/03 08:30:45;;;;;;;9.77;4.57;;;;;;;29.37;56.38;99899.30;125557;1102;103750;-82
2023/08/03 08:39:53;;;;;;;6.75;4.00;;;;;;;29.43;54.97;99892.71;125207;1102;104239;-80
2023/08/03 08:42:42;;;;;;;8.15;3.92;;;;;;;29.51;54.37;99898.58;125110;1103;102435;-83
2023/08/03 08:46:07;;;;;;;4.80;3.90;;;;;;;29.61;53.96;99904.36;125321;1102;103077;-83
2023/08/03 08:48:52;;;;;;;8.80;4.60;;;;;;;29.67;53.43;99891.42;125186;1102;104257;-85
2023/08/03 08:51:31;;;;;;;7.27;4.40;;;;;;;29.71;52.77;99903.80;125321;1102;102691;-80
2023/08/03 08:54:11;;;;;;;8.73;4.10;;;;;;;29.65;53.04;99898.72;124579;1103;104220;-84
2023/08/03 08:57:07;;;;;;;11.90;4.50;;;;;;;29.73;52.40;99896.50;125229;1103;104198;-85
2023/08/03 09:00:05;;;;;;;6.93;4.00;;;;;;;29.75;51.78;99893.72;125217;1105;102849;-83
2023/08/03 09:03:16;;;;;;;6.17;4.27;;;;;;;29.80;51.70;99898.91;125316;1102;103168;-82
2023/08/03 09:06:17;;;;;;;6.83;4.10;;;;;;;29.89;51.40;99898.41;124912;1102;104219;-82
2023/08/03 09:09:27;;;;;;;;;;;;;;;;;;;;;
2023/08/03 09:12:27;;;;;;;6.07;4.20;;;;;;;29.88;49.37;99897.52;125375;1103;102107;-81
2023/08/03 09:15:24;;;;;;;7.77;4.13;;;;;;;29.85;49.78;99894.11;124489;1103;104230;-83
2023/08/03 09:18:14;;;;;;;9.00;4.20;;;;;;;29.91;49.70;99899.19;125442;1102;104137;-85
2023/08/03 09:20:59;;;;;;;8.13;4.47;;;;;;;30.05;49.70;99899.30;125363;1102;104211;-81
2023/08/03 09:23:55;;;;;;;7.43;4.47;;;;;;;30.21;49.78;99895.75;124776;1102;104076;-83
2023/08/03 09:27:02;;;;;;;7.97;4.47;;;;;;;30.33;49.08;99900.48;125075;1106;103846;-85
2023/08/03 09:33:26;;;;;;;6.33;4.67;;;;;;;30.43;49.05;99885.52;125968;1102;102868;-82
2023/08/03 09:36:15;;;;;;;5.47;4.23;;;;;;;30.48;48.96;99885.26;125549;1102;104312;-83
2023/08/03 09:39:18;;;;;;;6.30;4.57;;;;;;;30.67;49.06;99893.19;125048;1102;107101;-79
2023/08/03 09:41:57;;;;;;;7.13;4.63;;;;;;;30.88;48.48;99884.77;125231;1106;102277;-79
2023/08/03 09:44:38;;;;;;;9.87;4.90;;;;;;;30.96;47.99;99890.60;124316;1103;103804;-79
2023/08/03 09:47:24;;;;;;;6.03;4.40;;;;;;;31.05;47.45;99891.94;124749;1102;104236;-76
2023/08/03 09:50:02;;;;;;;6.20;4.00;;;;;;;31.08;47.05;99897.18;124224;1102;102261;-79
2023/08/03 09:52:49;;;;;;;6.53;4.10;;;;;;;31.16;46.85;99898.45;125180;1102;102830;-81
2023/08/03 09:55:28;;;;;;;6.53;4.70;;;;;;;31.32;46.62;99889.40;125408;1101;104118;-83
2023/08/03 09:58:07;;;;;;;6.00;4.50;;;;;;;31.47;45.93;99887.61;125266;1102;104162;-83
2023/08/03 10:00:49;;;;;;;6.90;4.37;;;;;;;31.59;45.30;99891.45;125183;1105;104230;-82
2023/08/03 10:03:57;;;;;;;5.67;3.90;;;;;;;31.63;44.57;99888.42;125351;1105;105322;-82
2023/08/03 10:06:48;;;;;;;6.80;4.03;;;;;;;31.61;43.79;99882.23;125350;1102;102412;-82
2023/08/03 10:09:38;;;;;;;5.40;4.17;;;;;;;31.57;44.04;99877.98;125288;1102;103115;-81
2023/08/03 10:12:30;;;;;;;8.77;4.57;;;;;;;31.46;44.24;99873.19;125980;1102;102694;-81
2023/08/03 10:15:11;;;;;;;6.78;4.03;;;;;;;31.56;44.18;99880.80;117339;1101;10001686;-81
2023/08/03 10:17:47;;;;;;;6.17;4.03;;;;;;;31.65;43.63;99880.20;117148;1103;10001410;-81
2023/08/03 10:20:25;;;;;;;7.93;4.27;;;;;;;31.71;43.43;99874.39;126102;1102;101952;-79
2023/08/03 10:23:14;;;;;;;7.23;4.23;;;;;;;31.76;43.10;99872.28;126017;1102;101630;-82
2023/08/03 10:25:58;;;;;;;6.30;4.20;;;;;;;31.85;42.81;99868.99;125999;1102;102728;-81
2023/08/03 10:28:45;;;;;;;6.97;4.23;;;;;;;31.91;42.77;99867.72;125845;1102;102714;-79
2023/08/03 10:31:19;;;;;;;6.57;4.23;;;;;;;32.01;42.79;99870.73;126046;1101;102588;-79
2023/08/03 10:34:14;;;;;;;6.83;4.20;;;;;;;32.15;42.65;99861.72;126109;1102;102406;-84
2023/08/03 10:36:53;;;;;;;7.17;3.90;;;;;;;31.98;42.25;99862.80;126088;1102;101821;-83
2023/08/03 10:39:50;;;;;;;5.60;4.50;;;;;;;31.76;42.60;99860.55;124997;1106;102311;-81
2023/08/03 10:42:26;;;;;;;5.93;4.13;;;;;;;31.46;42.67;99867.77;124945;1102;104137;-79
2023/08/03 10:45:29;;;;;;;6.63;4.40;;;;;;;31.41;42.59;99860.88;126110;1101;102970;-83
2023/08/03 10:48:34;;;;;;;7.17;4.27;;;;;;;31.46;42.50;99856.92;125955;1102;102277;-83
2023/08/03 10:51:06;;;;;;;6.57;4.10;;;;;;;31.57;41.95;99855.41;125966;1102;102450;-82
2023/08/03 10:53:37;;;;;;;4.93;3.97;;;;;;;31.56;41.77;99854.54;117231;1101;10001070;-80
2023/08/03 10:56:14;;;;;;;9.15;4.58;;;;;;;31.58;42.00;99844.46;126037;1102;101551;-79
2023/08/03 10:58:52;;;;;;;8.43;4.17;;;;;;;31.67;42.02;99846.60;125890;1102;102801;-78
2023/08/03 11:01:32;;;;;;;9.30;4.23;;;;;;;31.76;41.46;99837.03;124913;1101;102219;-82
2023/08/03 11:04:10;;;;;;;6.80;4.13;;;;;;;31.76;41.29;99834.31;124676;1102;102915;-78
2023/08/03 11:06:43;;;;;;;6.10;3.95;;;;;;;31.84;41.11;99836.55;124475;1102;103281;-79
2023/08/03 11:09:14;;;;;;;;;;;;;;;31.86;40.67;99840.02;124315;1102;104339;-77
2023/08/03 11:11:54;;;;;;;4.73;3.47;;;;;;;31.91;40.12;99832.45;124403;1102;103511;-80
2023/08/03 11:14:27;;;;;;;4.57;3.70;;;;;;;31.93;40.10;99830.53;124648;1102;102287;-80
2023/08/03 11:17:03;;;;;;;6.80;4.17;;;;;;;31.86;39.65;99826.45;124677;1100;102647;-82
2023/08/03 11:19:46;;;;;;;4.20;3.60;;;;;;;31.70;39.38;99832.85;124623;1102;103053;-83
2023/08/03 11:22:21;;;;;;;4.30;3.55;;;;;;;31.63;39.38;99838.75;125300;1102;104249;-81
2023/08/03 11:24:58;;;;;;;4.63;3.63;;;;;;;31.66;39.28;99825.86;125258;1102;103586;-80
2023/08/03 11:27:33;;;;;;;6.93;4.20;;;;;;;31.71;39.23;99829.19;124602;1102;104275;-82
2023/08/03 11:30:07;;;;;;;8.30;4.57;;;;;;;31.69;39.45;99828.38;124850;1102;104172;-80
2023/08/03 11:32:42;;;;;;;6.30;4.00;;;;;;;31.66;39.43;99827.72;124642;1102;104227;-81
2023/08/03 11:35:14;;;;;;;5.10;3.77;;;;;;;31.76;38.93;99822.58;124436;1102;104290;-81
2023/08/03 11:37:50;;;;;;;6.40;3.63;;;;;;;31.90;38.64;99823.45;124560;1102;104258;-80
2023/08/03 11:40:29;;;;;;;6.27;3.60;;;;;;;31.95;38.37;99815.02;124373;1102;104248;-80
2023/08/03 11:43:02;;;;;;;6.43;3.60;;;;;;;32.03;38.03;99819.95;124822;1102;102657;-81
2023/08/03 11:45:45;;;;;;;6.33;3.77;;;;;;;32.06;37.72;99815.19;125328;1102;103230;-82
2023/08/03 11:48:24;;;;;;;4.93;3.87;;;;;;;32.13;37.80;99817.53;125283;1102;104130;-79
2023/08/03 11:51:30;;;;;;;6.07;3.60;;;;;;;32.04;37.42;99817.14;125580;1102;102510;-81
2023/08/03 11:54:23;;;;;;;4.43;3.70;;;;;;;31.98;37.41;99822.09;125483;1102;104181;-80
2023/08/03 12:00:24;;;;;;;5.40;4.17;;;;;;;31.95;37.05;99806.02;125574;1102;102014;-80
2023/08/03 12:03:03;;;;;;;4.53;3.93;;;;;;;31.93;37.11;99810.65;125327;1105;102095;-79
2023/08/03 12:05:53;;;;;;;5.03;3.73;;;;;;;31.95;36.45;99808.73;124438;1102;104278;-80
2023/08/03 12:08:38;;;;;;;7.87;4.07;;;;;;;32.01;36.90;99811.91;125367;1101;102085;-80
2023/08/03 12:11:24;;;;;;;6.57;4.03;;;;;;;32.08;36.95;99806.95;125274;1102;104181;-80
2023/08/03 12:13:59;;;;;;;5.50;3.60;;;;;;;32.17;36.79;99808.23;125428;1102;104357;-83
2023/08/03 12:16:37;;;;;;;5.53;3.60;;;;;;;32.12;36.37;99792.25;125443;1102;102432;-86
2023/08/03 12:19:32;;;;;;;6.23;3.43;;;;;;;32.07;36.10;99800.66;124910;1102;104239;-84
2023/08/03 12:22:11;;;;;;;5.00;3.53;;;;;;;32.05;36.28;99801.72;125260;1102;107935;-80
2023/08/03 12:24:45;;;;;;;5.80;3.60;;;;;;;32.04;36.75;99802.71;125289;1102;102768;-81
2023/08/03 12:27:24;;;;;;;5.00;3.80;;;;;;;32.01;36.61;99802.91;125276;1102;104208;-82
2023/08/03 12:29:57;;;;;;;6.17;3.77;;;;;;;32.03;36.53;99803.67;125202;1102;101909;-80
2023/08/03 12:32:58;;;;;;;4.77;3.50;;;;;;;32.05;36.65;99799.01;124740;1102;104286;-84
2023/08/03 12:35:42;;;;;;;4.40;3.25;;;;;;;32.05;36.42;99801.72;125438;1102;104271;-83